Archival Weather

Murmansk

Murmansk, Russia (ULMM)

Report from: Thursday, April 25, 2024 5:00 PM MSK
Current time: Monday, June 17, 2024 9:49 AM MSK

Current weather – Weather history – Daily summaries
Weather forecast

Temperature5.0°C (41.0°F)
Wind chill3.4°C (38.1°F)
Dew point-5.0°C (23.0°F)
Winds 3.9 kts (2 m/s, 4.5 mph) East-Southeast (120°)
Visibility6.2 mi. (10 km)
Clouds Ceiling: Broken clouds 4,000 ft. (1,219 m)
Altimeter30.00 in.Hg (1016 mB)
Precip. events QF 1:35 AM
Relative humidity48 %
Density altitude-1,234 ft. (-376 m)
Remarks No significant changes expected in the next two hours
Flight conditions Visual Meteorological Conditions
Raw dataULMM 251400Z 12002MPS 9999 BKN040 05/M05 Q1016 R13/250051 NOSIG RMK QFE755
An error has occurred. This application may no longer respond until reloaded. Reload 🗙